createdAt,value
2023-01-19T00:01:43.299Z,86.54
2023-01-19T00:04:11.578Z,86.29
2023-01-19T00:06:39.720Z,85.77
2023-01-19T00:09:07.826Z,85.82
2023-01-19T00:11:35.994Z,85.62
2023-01-19T00:14:04.776Z,85.44
2023-01-19T00:16:32.999Z,84.90
2023-01-19T00:19:01.175Z,85.31
2023-01-19T00:21:29.353Z,86.06
2023-01-19T00:23:57.550Z,86.04
2023-01-19T00:26:25.739Z,86.09
2023-01-19T00:28:53.850Z,86.33
2023-01-19T00:31:22.227Z,86.65
2023-01-19T00:33:53.001Z,87.06
2023-01-19T00:36:21.275Z,87.10
2023-01-19T00:38:49.362Z,87.26
2023-01-19T00:41:17.767Z,86.92
2023-01-19T00:43:46.032Z,87.35
2023-01-19T00:46:14.228Z,87.44
2023-01-19T00:48:42.332Z,88.86
2023-01-19T00:51:10.477Z,90.39
2023-01-19T00:53:38.734Z,90.31
2023-01-19T00:56:07.339Z,90.72
2023-01-19T00:58:35.484Z,90.85
2023-01-19T01:01:05.020Z,91.34
2023-01-19T01:03:33.290Z,91.79
2023-01-19T01:06:01.387Z,91.24
2023-01-19T01:08:30.610Z,91.50
2023-01-19T01:10:58.977Z,90.78
2023-01-19T01:13:28.216Z,90.95
2023-01-19T01:15:57.110Z,90.98
2023-01-19T01:18:26.337Z,91.53
2023-01-19T01:21:05.249Z,91.50
2023-01-19T01:23:34.968Z,92.08
2023-01-19T01:26:03.195Z,92.58
2023-01-19T01:28:31.753Z,92.50
2023-01-19T01:30:59.938Z,91.98
2023-01-19T01:33:41.092Z,92.03
2023-01-19T01:36:11.847Z,91.93
2023-01-19T01:38:41.575Z,91.56
2023-01-19T01:41:10.494Z,92.05
2023-01-19T01:43:54.179Z,92.25
2023-01-19T01:46:22.220Z,92.04
2023-01-19T01:49:19.837Z,92.00
2023-01-19T01:51:52.497Z,91.96
2023-01-19T01:54:27.127Z,92.43
2023-01-19T01:57:00.595Z,92.39
2023-01-19T01:59:40.055Z,92.63
2023-01-19T02:02:31.483Z,93.01
2023-01-19T02:05:06.949Z,93.34
2023-01-19T02:08:15.908Z,93.47
2023-01-19T02:11:03.403Z,93.62
2023-01-19T02:13:35.648Z,93.85
2023-01-19T02:16:07.878Z,93.82
2023-01-19T02:18:37.385Z,93.75
2023-01-19T02:21:12.075Z,93.80
2023-01-19T02:23:50.371Z,93.56
2023-01-19T02:26:22.361Z,93.81
2023-01-19T02:28:59.639Z,93.84
2023-01-19T02:31:30.239Z,93.88
2023-01-19T02:34:00.666Z,94.06
2023-01-19T02:36:35.038Z,93.91
2023-01-19T02:39:06.363Z,94.01
2023-01-19T02:41:40.895Z,93.94
2023-01-19T02:44:11.235Z,94.15
2023-01-19T02:46:39.902Z,94.23
2023-01-19T02:49:08.144Z,94.71
2023-01-19T02:51:36.403Z,94.36
2023-01-19T02:54:25.785Z,94.64
2023-01-19T02:57:08.866Z,94.45
2023-01-19T03:00:09.880Z,94.17
2023-01-19T03:02:53.744Z,94.06
2023-01-19T03:06:06.569Z,94.33
2023-01-19T03:08:44.231Z,94.36
2023-01-19T03:11:14.563Z,94.37
2023-01-19T03:13:54.305Z,94.66
2023-01-19T03:16:34.762Z,94.86
2023-01-19T03:19:19.381Z,94.62
2023-01-19T03:21:49.670Z,94.28
2023-01-19T03:24:20.950Z,94.19
2023-01-19T03:26:57.878Z,94.70
2023-01-19T03:29:32.643Z,94.71
2023-01-19T03:32:06.355Z,95.06
2023-01-19T03:34:36.165Z,96.30
2023-01-19T03:37:07.056Z,96.02
2023-01-19T03:39:35.437Z,95.24
2023-01-19T03:42:08.683Z,94.92
2023-01-19T03:44:40.402Z,94.79
2023-01-19T03:47:11.354Z,94.62
2023-01-19T03:49:43.296Z,94.83
2023-01-19T03:52:12.978Z,94.59
2023-01-19T03:54:41.256Z,94.33
2023-01-19T03:57:10.220Z,95.27
2023-01-19T03:59:38.288Z,95.17
2023-01-19T04:02:06.526Z,94.59
2023-01-19T04:04:34.987Z,93.31
2023-01-19T04:07:03.153Z,93.36
2023-01-19T04:09:31.293Z,93.16
2023-01-19T04:12:01.715Z,93.32
2023-01-19T04:14:30.010Z,93.34
2023-01-19T04:16:58.313Z,93.10
2023-01-19T04:19:26.483Z,92.39
2023-01-19T04:21:55.803Z,91.93
2023-01-19T04:24:24.047Z,90.88
2023-01-19T04:26:53.717Z,90.76
2023-01-19T04:29:21.865Z,90.25
2023-01-19T04:31:49.954Z,89.79
2023-01-19T04:34:18.130Z,89.69
2023-01-19T04:36:47.035Z,89.82
2023-01-19T04:39:15.681Z,89.73
2023-01-19T04:41:44.079Z,90.00
2023-01-19T04:44:12.184Z,89.88
2023-01-19T04:46:40.350Z,90.31
2023-01-19T04:49:09.526Z,90.21
2023-01-19T04:51:37.658Z,89.63
2023-01-19T04:54:06.996Z,88.67
2023-01-19T04:56:35.844Z,88.52
2023-01-19T04:59:04.254Z,88.28
2023-01-19T05:01:32.922Z,88.37
2023-01-19T05:04:03.821Z,88.39
2023-01-19T05:06:33.018Z,88.49
2023-01-19T05:09:01.199Z,88.32
2023-01-19T05:11:29.340Z,87.03
2023-01-19T05:13:57.526Z,86.35
2023-01-19T05:16:25.758Z,84.19
2023-01-19T05:18:54.077Z,82.18
2023-01-19T05:21:22.415Z,81.07
2023-01-19T05:23:50.516Z,80.57
2023-01-19T05:26:18.663Z,79.78
2023-01-19T05:28:46.844Z,79.72
2023-01-19T05:31:15.291Z,79.39
2023-01-19T05:33:43.958Z,79.03
2023-01-19T05:36:12.080Z,78.00
2023-01-19T05:38:40.197Z,78.07
2023-01-19T05:41:08.600Z,78.23
2023-01-19T05:43:36.714Z,78.36
2023-01-19T05:46:07.998Z,78.42
2023-01-19T05:48:36.222Z,78.28
2023-01-19T05:51:05.544Z,77.97
2023-01-19T05:53:33.685Z,78.16
2023-01-19T05:56:08.691Z,77.92
2023-01-19T05:58:40.234Z,78.18
2023-01-19T06:01:12.716Z,78.05
2023-01-19T06:03:41.117Z,77.91
2023-01-19T06:06:09.404Z,77.79
2023-01-19T06:08:37.589Z,77.63
2023-01-19T06:11:07.701Z,77.76
2023-01-19T06:13:36.581Z,77.49
2023-01-19T06:16:05.124Z,77.20
2023-01-19T06:18:34.406Z,77.35
2023-01-19T06:21:07.842Z,77.58
2023-01-19T06:23:36.987Z,77.59
2023-01-19T06:26:05.969Z,77.78
2023-01-19T06:28:34.154Z,77.69
2023-01-19T06:31:03.835Z,77.71
2023-01-19T06:33:32.226Z,77.81
2023-01-19T06:36:00.351Z,78.06
2023-01-19T06:38:28.629Z,78.16
2023-01-19T06:40:58.816Z,78.18
2023-01-19T06:43:27.134Z,78.50
2023-01-19T06:45:56.739Z,78.32
2023-01-19T06:48:25.103Z,77.77
2023-01-19T06:50:53.406Z,77.37
2023-01-19T06:53:22.478Z,77.42
2023-01-19T06:55:50.731Z,76.61
2023-01-19T06:58:19.587Z,76.79
2023-01-19T07:00:49.086Z,77.23
2023-01-19T07:03:22.377Z,77.03
2023-01-19T07:05:52.830Z,77.08
2023-01-19T07:08:21.100Z,77.30
2023-01-19T07:11:25.222Z,77.29
2023-01-19T07:13:40.021Z,77.77
2023-01-19T07:16:11.199Z,77.96
2023-01-19T07:18:41.080Z,78.14
2023-01-19T07:21:09.524Z,78.09
2023-01-19T07:23:38.669Z,77.80
2023-01-19T07:26:06.999Z,77.60
2023-01-19T07:28:37.124Z,77.60
2023-01-19T07:31:05.687Z,77.35
2023-01-19T07:33:33.935Z,77.14
2023-01-19T07:36:02.264Z,76.35
2023-01-19T07:38:30.436Z,75.73
2023-01-19T07:41:03.283Z,74.81
2023-01-19T07:43:32.682Z,72.04
2023-01-19T07:46:04.009Z,71.02
2023-01-19T07:48:33.957Z,69.85
2023-01-19T07:51:11.061Z,68.14
2023-01-19T07:53:42.100Z,66.34
2023-01-19T07:56:11.375Z,64.40
2023-01-19T07:58:40.046Z,62.10
2023-01-19T08:01:11.239Z,59.62
2023-01-19T08:03:40.688Z,58.15
2023-01-19T08:06:19.593Z,57.58
2023-01-19T08:08:49.743Z,57.88
2023-01-19T08:11:19.174Z,57.85
2023-01-19T08:13:48.451Z,57.29
2023-01-19T08:16:17.992Z,57.28
2023-01-19T08:18:46.814Z,56.46
2023-01-19T08:21:14.930Z,54.39
2023-01-19T08:23:44.364Z,51.99
2023-01-19T08:26:21.447Z,48.09
2023-01-19T08:28:49.973Z,45.37
2023-01-19T08:31:21.234Z,45.00
2023-01-19T08:33:51.404Z,44.37
2023-01-19T08:36:21.476Z,44.37
2023-01-19T08:38:53.824Z,45.95
2023-01-19T08:41:24.298Z,47.07
2023-01-19T08:43:57.747Z,48.37
2023-01-19T08:46:26.115Z,49.38
2023-01-19T08:48:57.773Z,49.39
2023-01-19T08:51:31.795Z,49.13
2023-01-19T08:54:00.108Z,48.34
2023-01-19T08:56:28.332Z,46.62
2023-01-19T08:59:09.321Z,43.94
2023-01-19T09:01:39.212Z,42.15
2023-01-19T09:04:07.756Z,40.73
2023-01-19T09:06:36.062Z,40.46
2023-01-19T09:09:04.555Z,41.87
2023-01-19T09:11:33.264Z,39.51
2023-01-19T09:14:01.701Z,40.12
2023-01-19T09:16:29.830Z,39.94
2023-01-19T09:18:58.689Z,41.83
2023-01-19T09:21:28.189Z,43.82
2023-01-19T09:23:57.810Z,44.45
2023-01-19T09:26:27.329Z,45.61
2023-01-19T09:28:55.472Z,47.45
2023-01-19T09:31:25.544Z,48.72
2023-01-19T09:33:54.237Z,49.92
2023-01-19T09:36:22.798Z,51.19
2023-01-19T09:38:51.748Z,52.44
2023-01-19T09:41:22.699Z,52.86
2023-01-19T09:43:59.798Z,53.21
2023-01-19T09:46:42.302Z,54.74
2023-01-19T09:49:17.972Z,55.85
2023-01-19T09:51:48.857Z,56.57
2023-01-19T09:54:53.047Z,57.69
2023-01-19T09:57:24.688Z,58.86
2023-01-19T09:59:58.225Z,59.59
2023-01-19T10:02:54.345Z,60.29
2023-01-19T10:05:40.243Z,61.25
2023-01-19T10:08:26.930Z,61.70
2023-01-19T10:10:57.766Z,61.56
2023-01-19T10:13:42.666Z,62.29
2023-01-19T10:16:31.726Z,62.13
2023-01-19T10:19:17.078Z,62.23
2023-01-19T10:21:48.091Z,61.94
2023-01-19T10:24:38.849Z,62.70
2023-01-19T10:27:18.094Z,63.43
2023-01-19T10:29:47.535Z,63.85
2023-01-19T10:32:28.236Z,63.24
2023-01-19T10:34:58.707Z,64.42
2023-01-19T10:37:37.203Z,64.55
2023-01-19T10:40:11.815Z,64.21
2023-01-19T10:42:42.160Z,64.18
2023-01-19T10:45:25.991Z,64.31
2023-01-19T10:47:58.165Z,64.30
2023-01-19T10:50:30.830Z,64.51
2023-01-19T10:53:02.065Z,65.02
2023-01-19T10:55:40.092Z,65.01
2023-01-19T10:58:27.572Z,65.50
2023-01-19T11:00:56.124Z,66.07
2023-01-19T11:03:29.242Z,66.75
2023-01-19T11:06:15.768Z,68.49
2023-01-19T11:08:45.990Z,68.51
2023-01-19T11:11:14.736Z,69.40
2023-01-19T11:13:44.053Z,69.68
2023-01-19T11:16:35.081Z,69.67
2023-01-19T11:19:03.727Z,69.82
2023-01-19T11:21:33.232Z,70.29
2023-01-19T11:24:05.492Z,70.32
2023-01-19T11:26:41.060Z,70.81
2023-01-19T11:29:27.484Z,70.42
2023-01-19T11:32:09.204Z,69.72
2023-01-19T11:34:39.344Z,70.17
2023-01-19T11:37:16.771Z,70.22
2023-01-19T11:39:54.051Z,69.86
2023-01-19T11:42:22.766Z,70.25
2023-01-19T11:45:12.595Z,69.95
2023-01-19T11:47:45.629Z,70.33
2023-01-19T11:50:29.605Z,70.05
2023-01-19T11:53:07.569Z,69.90
2023-01-19T11:56:05.013Z,70.30
2023-01-19T11:58:46.986Z,70.97
2023-01-19T12:01:27.936Z,71.25
2023-01-19T12:04:14.349Z,70.91
2023-01-19T12:06:47.952Z,70.86
2023-01-19T12:09:24.411Z,71.32
2023-01-19T12:12:00.395Z,71.75
2023-01-19T12:14:43.749Z,71.95
2023-01-19T12:17:24.790Z,71.19
2023-01-19T12:20:24.572Z,70.34
2023-01-19T12:23:02.902Z,69.94
2023-01-19T12:25:49.296Z,70.71
2023-01-19T12:28:22.751Z,70.44
2023-01-19T12:30:52.367Z,70.80
2023-01-19T12:33:20.846Z,71.48
2023-01-19T12:36:01.153Z,69.90
2023-01-19T12:39:18.366Z,70.37
2023-01-19T12:41:48.320Z,70.33
2023-01-19T12:44:21.514Z,70.45
2023-01-19T12:47:04.134Z,69.61
2023-01-19T12:49:43.096Z,69.01
2023-01-19T12:52:30.948Z,69.27
2023-01-19T12:55:15.212Z,69.55
2023-01-19T12:58:28.624Z,69.94
2023-01-19T13:01:16.723Z,70.19
2023-01-19T13:04:09.290Z,69.53
2023-01-19T13:06:47.963Z,69.21
2023-01-19T13:09:33.568Z,68.87
2023-01-19T13:12:14.100Z,69.33
2023-01-19T13:14:43.896Z,69.47
2023-01-19T13:17:28.087Z,69.83
2023-01-19T13:20:25.611Z,70.30
2023-01-19T13:23:16.885Z,70.44
2023-01-19T13:25:50.936Z,70.30
2023-01-19T13:28:22.448Z,70.56
2023-01-19T13:30:56.629Z,70.78
2023-01-19T13:33:26.706Z,70.41
2023-01-19T13:35:58.986Z,70.14
2023-01-19T13:38:29.421Z,69.29
2023-01-19T13:41:01.808Z,68.64
2023-01-19T13:43:37.240Z,68.31
2023-01-19T13:46:06.285Z,67.76
2023-01-19T13:48:34.735Z,67.69
2023-01-19T13:51:06.263Z,66.85
2023-01-19T13:53:35.616Z,67.18
2023-01-19T13:56:09.726Z,67.31
2023-01-19T13:58:37.927Z,66.81
2023-01-19T14:01:06.220Z,66.26
2023-01-19T14:03:34.503Z,66.36
2023-01-19T14:06:15.614Z,66.55
2023-01-19T14:08:44.908Z,66.84
2023-01-19T14:11:14.408Z,66.86
2023-01-19T14:13:45.022Z,67.00
2023-01-19T14:16:17.317Z,67.00
2023-01-19T14:18:45.548Z,67.22
2023-01-19T14:21:16.052Z,67.22
2023-01-19T14:23:55.206Z,67.21
2023-01-19T14:26:49.364Z,67.68
2023-01-19T14:29:17.644Z,67.59
2023-01-19T14:31:53.641Z,67.50
2023-01-19T14:34:41.568Z,67.48
2023-01-19T14:37:38.326Z,67.74
2023-01-19T14:40:11.274Z,68.16
2023-01-19T14:42:48.088Z,68.22
2023-01-19T14:45:23.936Z,68.28
2023-01-19T14:47:59.871Z,68.25
2023-01-19T14:50:41.468Z,68.44
2023-01-19T14:53:23.885Z,68.30
2023-01-19T14:56:04.688Z,68.27
2023-01-19T14:58:35.295Z,68.29
2023-01-19T15:01:04.994Z,68.44
2023-01-19T15:03:44.064Z,68.64
2023-01-19T15:06:16.621Z,69.25
2023-01-19T15:08:46.170Z,69.33
2023-01-19T15:11:29.965Z,69.60
2023-01-19T15:13:59.225Z,69.71
2023-01-19T15:16:31.045Z,69.85
2023-01-19T15:18:59.149Z,69.85
2023-01-19T15:21:27.379Z,70.15
2023-01-19T15:23:55.677Z,70.43
2023-01-19T15:26:26.040Z,70.52
2023-01-19T15:28:56.443Z,70.62
2023-01-19T15:31:26.390Z,70.53
2023-01-19T15:33:54.600Z,70.40
2023-01-19T15:36:24.461Z,70.03
2023-01-19T15:38:52.722Z,70.38
2023-01-19T15:41:26.647Z,70.30
2023-01-19T15:43:54.896Z,69.75
2023-01-19T15:46:25.441Z,69.74
2023-01-19T15:48:54.604Z,69.57
2023-01-19T15:51:27.789Z,69.70
2023-01-19T15:53:56.707Z,70.22
2023-01-19T15:56:27.419Z,69.29
2023-01-19T15:58:56.900Z,68.96
2023-01-19T16:01:35.308Z,69.94
2023-01-19T16:04:06.774Z,70.61
2023-01-19T16:06:35.160Z,70.80
2023-01-19T16:09:04.000Z,71.18
2023-01-19T16:11:35.099Z,71.35
2023-01-19T16:14:03.291Z,71.63
2023-01-19T16:16:31.617Z,71.23
2023-01-19T16:18:59.746Z,71.44
2023-01-19T16:21:28.482Z,71.75
2023-01-19T16:23:56.695Z,71.85
2023-01-19T16:26:35.051Z,71.76
2023-01-19T16:29:09.938Z,71.69
2023-01-19T16:31:40.201Z,71.43
2023-01-19T16:34:09.491Z,71.03
2023-01-19T16:36:42.975Z,71.27
2023-01-19T16:39:13.942Z,71.33
2023-01-19T16:41:43.473Z,71.52
2023-01-19T16:44:13.547Z,72.02
2023-01-19T16:46:45.416Z,71.94
2023-01-19T16:49:19.301Z,71.97
2023-01-19T16:51:48.691Z,72.03
2023-01-19T16:54:23.129Z,72.03
2023-01-19T16:56:51.124Z,71.96
2023-01-19T16:59:21.198Z,71.60
2023-01-19T17:01:51.172Z,71.36
2023-01-19T17:04:21.708Z,70.61
2023-01-19T17:06:52.856Z,69.80
2023-01-19T17:09:21.086Z,69.51
2023-01-19T17:11:49.415Z,69.37
2023-01-19T17:14:21.051Z,69.40
2023-01-19T17:16:49.921Z,68.99
2023-01-19T17:19:20.604Z,68.53
2023-01-19T17:21:49.629Z,68.78
2023-01-19T17:24:18.512Z,68.56
2023-01-19T17:26:50.548Z,68.51
2023-01-19T17:29:18.934Z,68.48
2023-01-19T17:31:50.734Z,68.99
2023-01-19T17:34:18.828Z,69.23
2023-01-19T17:36:47.187Z,69.36
2023-01-19T17:39:17.034Z,69.65
2023-01-19T17:41:45.282Z,69.72
2023-01-19T17:44:13.463Z,69.74
2023-01-19T17:46:41.818Z,69.71
2023-01-19T17:49:11.142Z,69.65
2023-01-19T17:51:39.234Z,69.65
2023-01-19T17:54:07.528Z,69.38
2023-01-19T17:56:38.712Z,69.24
2023-01-19T17:59:08.260Z,68.54
2023-01-19T18:01:40.117Z,68.55
2023-01-19T18:04:09.092Z,68.48
2023-01-19T18:06:38.076Z,68.44
2023-01-19T18:09:09.328Z,68.12
2023-01-19T18:11:37.657Z,67.71
2023-01-19T18:14:06.792Z,67.56
2023-01-19T18:16:36.076Z,66.95
2023-01-19T18:19:04.340Z,67.06
2023-01-19T18:21:32.565Z,67.00
2023-01-19T18:24:03.376Z,67.19
2023-01-19T18:26:34.495Z,66.98
2023-01-19T18:29:02.648Z,66.71
2023-01-19T18:31:31.368Z,66.41
2023-01-19T18:33:59.939Z,65.75
2023-01-19T18:36:28.516Z,65.63
2023-01-19T18:38:56.763Z,65.15
2023-01-19T18:41:25.068Z,65.21
2023-01-19T18:43:58.291Z,65.02
2023-01-19T18:46:27.532Z,65.33
2023-01-19T18:48:56.060Z,65.63
2023-01-19T18:51:27.205Z,65.64
2023-01-19T18:53:57.466Z,65.69
2023-01-19T18:56:26.219Z,66.03
2023-01-19T18:58:54.637Z,66.53
2023-01-19T19:01:27.924Z,66.61
2023-01-19T19:03:57.654Z,67.03
2023-01-19T19:06:27.323Z,67.16
2023-01-19T19:08:57.408Z,67.37
2023-01-19T19:11:27.000Z,66.38
2023-01-19T19:14:01.228Z,66.00
2023-01-19T19:16:30.316Z,65.63
2023-01-19T19:18:59.629Z,65.12
2023-01-19T19:21:28.043Z,64.97
2023-01-19T19:23:58.132Z,65.39
2023-01-19T19:26:28.368Z,65.51
2023-01-19T19:28:57.046Z,65.78
2023-01-19T19:31:27.045Z,66.07
2023-01-19T19:33:56.564Z,65.95
2023-01-19T19:36:26.624Z,66.51
2023-01-19T19:38:56.759Z,66.24
2023-01-19T19:41:27.763Z,66.49
2023-01-19T19:43:56.228Z,66.39
2023-01-19T19:46:25.856Z,66.09
2023-01-19T19:48:54.864Z,66.72
2023-01-19T19:51:27.192Z,66.85
2023-01-19T19:53:59.932Z,66.24
2023-01-19T19:56:30.586Z,65.84
2023-01-19T19:58:59.591Z,65.99
2023-01-19T20:01:32.983Z,66.07
2023-01-19T20:04:06.223Z,65.96
2023-01-19T20:06:42.235Z,65.97
2023-01-19T20:09:14.928Z,65.27
2023-01-19T20:11:44.832Z,65.23
2023-01-19T20:14:14.419Z,65.31
2023-01-19T20:16:43.040Z,65.59
2023-01-19T20:19:11.417Z,65.87
2023-01-19T20:21:44.444Z,66.16
2023-01-19T20:24:19.074Z,66.19
2023-01-19T20:26:50.529Z,67.32
2023-01-19T20:29:20.681Z,67.34
2023-01-19T20:31:52.512Z,67.66
2023-01-19T20:34:25.180Z,67.80
2023-01-19T20:36:54.188Z,69.35
2023-01-19T20:39:24.121Z,69.85
2023-01-19T20:41:54.010Z,70.85
2023-01-19T20:44:24.044Z,70.26
2023-01-19T20:46:53.565Z,70.17
2023-01-19T20:49:22.103Z,70.00
2023-01-19T20:51:52.224Z,70.90
2023-01-19T20:54:24.748Z,72.35
2023-01-19T20:56:53.206Z,73.47
2023-01-19T20:59:21.431Z,74.79
2023-01-19T21:01:50.245Z,75.46
2023-01-19T21:04:19.075Z,74.91
2023-01-19T21:06:47.190Z,75.56
2023-01-19T21:09:15.680Z,76.03
2023-01-19T21:11:44.481Z,77.26
2023-01-19T21:14:12.917Z,77.36
2023-01-19T21:16:42.716Z,78.55
2023-01-19T21:19:12.017Z,79.01
2023-01-19T21:21:40.383Z,79.58
2023-01-19T21:24:10.780Z,80.08
2023-01-19T21:26:39.081Z,80.97
2023-01-19T21:29:07.678Z,81.03
2023-01-19T21:31:35.903Z,81.48
2023-01-19T21:34:04.035Z,81.67
2023-01-19T21:36:32.131Z,82.00
2023-01-19T21:39:00.992Z,82.35
2023-01-19T21:41:34.917Z,82.21
2023-01-19T21:44:03.214Z,82.84
2023-01-19T21:46:33.227Z,83.29
2023-01-19T21:49:04.430Z,84.16
2023-01-19T21:51:35.440Z,84.87
2023-01-19T21:54:05.295Z,84.96
2023-01-19T21:56:35.065Z,84.82
2023-01-19T21:59:04.825Z,84.64
2023-01-19T22:01:33.654Z,85.03
2023-01-19T22:04:02.068Z,85.14
2023-01-19T22:06:30.475Z,85.50
2023-01-19T22:09:00.853Z,85.09
2023-01-19T22:11:30.326Z,84.94
2023-01-19T22:14:02.279Z,85.14
2023-01-19T22:16:31.040Z,85.07
2023-01-19T22:19:02.117Z,85.50
2023-01-19T22:21:33.729Z,86.03
2023-01-19T22:24:04.141Z,85.75
2023-01-19T22:26:34.485Z,85.69
2023-01-19T22:29:05.342Z,85.97
2023-01-19T22:31:33.621Z,85.68
2023-01-19T22:34:01.820Z,86.39
2023-01-19T22:36:35.768Z,86.66
2023-01-19T22:39:10.341Z,86.81
2023-01-19T22:41:44.050Z,86.43
2023-01-19T22:44:17.525Z,87.57
2023-01-19T22:46:45.706Z,87.27
2023-01-19T22:49:16.042Z,86.80
2023-01-19T22:51:45.155Z,86.70
2023-01-19T22:54:13.678Z,86.59
2023-01-19T22:56:42.981Z,86.16
2023-01-19T22:59:11.187Z,85.75
2023-01-19T23:01:42.683Z,85.47
2023-01-19T23:04:16.083Z,84.93
2023-01-19T23:06:47.075Z,84.43
2023-01-19T23:09:16.044Z,84.48
2023-01-19T23:11:51.273Z,84.14
2023-01-19T23:14:22.039Z,84.11
2023-01-19T23:16:50.325Z,84.18
2023-01-19T23:19:19.342Z,83.85
2023-01-19T23:21:51.961Z,84.13
2023-01-19T23:24:20.258Z,84.15
2023-01-19T23:26:51.486Z,84.17
2023-01-19T23:29:19.912Z,84.05
2023-01-19T23:31:49.792Z,83.89
2023-01-19T23:34:18.030Z,83.72
2023-01-19T23:36:46.251Z,83.79
2023-01-19T23:39:17.374Z,84.02
2023-01-19T23:41:45.845Z,83.80
2023-01-19T23:44:14.095Z,83.74
2023-01-19T23:46:43.950Z,83.82
2023-01-19T23:49:13.556Z,83.58
2023-01-19T23:51:41.987Z,83.18
2023-01-19T23:54:10.315Z,83.32
2023-01-19T23:56:39.014Z,83.34
2023-01-19T23:59:09.830Z,83.64
